Corning, Arkansas
Current Conditions -  °F | °C
As of 9:55 AM on Sunday 23 Nov 2014 (Local Time) from K4M9 Reporting Station
Light Rain Light Rain  
Wind Chill: 57°   Ceiling: Unl
Heat Index: 57°   Visibility: 4mi
Dew Point: 57°   Wind: 13mph
Humidity: 100%   Direction: 130°SE
Pressure: 29.62"   Gusts: 17mph
Location:  36.41°N, 90.58°W
Report Text: K4M9 231555Z AUTO 13011G15KT 4SM -RA CLR 14/14 A2962 RMK AO2 P0001
Loading
Personal Weather Stations






























Interactive Weather Map New forecast layout! Learn more

10-Day Weather Forecast

Advertisements
Track Severe Weather on mobile